createdAt,value
2023-04-08T00:25:19.637Z,8.26
2023-04-08T00:53:35.975Z,8.09
2023-04-08T01:22:02.882Z,8.13
2023-04-08T01:50:19.893Z,8.17
2023-04-08T02:18:45.901Z,8.06
2023-04-08T02:47:16.609Z,8.22
2023-04-08T03:15:31.369Z,8.1
2023-04-08T03:43:57.059Z,8.17
2023-04-08T04:12:16.348Z,8.13
2023-04-08T04:40:28.385Z,7.87
2023-04-08T05:08:54.850Z,8.24
2023-04-08T05:37:07.467Z,8.28
2023-04-08T06:05:28.409Z,8.34
2023-04-08T06:33:43.429Z,8.24
2023-04-08T07:02:04.088Z,8.5
2023-04-08T07:30:43.456Z,8.93
2023-04-08T07:59:45.043Z,9.87
2023-04-08T08:28:50.682Z,10.32
2023-04-08T08:58:00.213Z,10.67
2023-04-08T09:27:03.477Z,11.98
2023-04-08T09:56:14.987Z,13.2
2023-04-08T10:25:02.488Z,12.96
2023-04-08T10:54:20.749Z,15.36
2023-04-08T11:23:16.842Z,13.65
2023-04-08T11:52:17.031Z,16.06
2023-04-08T12:21:23.820Z,14.26
2023-04-08T12:50:24.560Z,15.46
2023-04-08T13:19:22.914Z,13.85
2023-04-08T13:48:31.927Z,14.2
2023-04-08T14:17:29.785Z,13.33
2023-04-08T14:46:30.965Z,13.69
2023-04-08T15:15:28.395Z,13.24
2023-04-08T15:44:13.923Z,12.61
2023-04-08T16:13:17.390Z,12.15
2023-04-08T16:42:24.559Z,12.6
2023-04-08T17:11:20.513Z,11.93
2023-04-08T17:40:11.056Z,12
2023-04-08T18:09:14.834Z,11.63
2023-04-08T18:38:13.917Z,11.36
2023-04-08T19:07:13.997Z,11.13
2023-04-08T19:36:16.742Z,10.9
2023-04-08T20:05:21.130Z,10.98
2023-04-08T20:34:20.891Z,10.48
2023-04-08T21:03:32.787Z,10.3
2023-04-08T21:32:13.404Z,10.11
2023-04-08T22:01:10.749Z,10.04
2023-04-08T22:30:06.069Z,10.2
2023-04-08T22:58:57.499Z,9.97
2023-04-08T23:27:50.825Z,9.5
2023-04-08T23:56:54.924Z,8.57
